Northfield, CT (06778)

7:33 AM EDT on July 29, 2016 (GMT -0400)
Chestnut Hill | | Change Station

Elev 1181 ft 41.73 °N, 73.17 °W | Updated 4 seconds ago

Light Rain
Light Rain Mist
68.9 °F
Feels Like 68.9 °F
N
0.0
Wind Variable Wind from North
Gusts 0.0 mph

Today
High -- | Low -- °F
--% Chance of Precip.
Yesterday
High -- | Low -- °F
Precip. -- in
Pressure 29.89 in
Visibility 4.0 miles
Clouds Few 500 ft
Overcast 8000 ft
Dew Point 69 °F
Humidity 99%
Rainfall 0.17 in
Snow Depth Not available.
5:44 AM 8:13 PM
Waning Crescent, 23% visible
METAR KOXC 291050Z 07004KT 4SM -RA BR FEW005 OVC080 21/18 A2989
Pressure 29.89 in
Visibility 4.0 miles
Clouds Few 500 ft
Overcast 8000 ft
Dew Point 69 °F
Humidity 99%
Rainfall 0.17 in
Snow Depth Not available.
5:44 AM 8:13 PM
Waning Crescent, 23% visible
METAR KOXC 291050Z 07004KT 4SM -RA BR FEW005 OVC080 21/18 A2989

10-Day Weather Forecast

Almanac

Astronomy

Jul. 29, 2016 Rise Set
Actual Time
Civil Twilight
Nautical Twilight
Astronomical Twilight
Moon
Length of Visible Light
Length of Day
Tomorrow will be .
, % of the Moon is Illuminated

Today's Extremes

State Highs State Lows

Community

WunderPhotos

Upload Photos

1,928,315 photos uploaded!

WunderBlog® & News

Nearby

Air Quality

  Air Quality AQ Index Pollutant
Not available.

Snow Depth

Station Depth Elevation

Earthquake Activity

City Distance Mag. Time & Date
Minimum magnitude displayed is 2.5.

Coastal Water Temperatures

Place Temperature

Stations

Nearby Weather Stations

Station Location Temp. Windchill Dew Point Humidity Wind Precip. Elev Updated Type
                   

Watches & Warnings

There are currently no watches in effect.